Tropical Cyclones
[Index]
Main Index Home Page Stock Weather Photos Extreme Storms Discussion Storm News and Storm Chasing Reports Tropical Cyclones / Hurricanes / Typhoons Weather Data and Links Wild Fires / Bushfires Weather Observation Techniques Weather Picture Catalogue Tornado Pictures and Reports Stock Video Footage and DVDs for sale
Season 2015-2016 Tropical Cyclone TUNI Track Map
Season 2015-2016 Summaries (Operational Data): [AU] [SIO] [SPAC] [SH]
<<- Previous TC | 2015-2016 Season | Next TC ->>

click for intensity scale information  Lat/long Grid: Show Hide

 Date Labels: Show Hide

Operational Tropical Cyclone Data : JTWC Advisories

Name: TUNI
Number: 1604

22 Nov 2015 18:00 UTC to 10 Dec 2015 18:00 UTC

    date/time    lat    long     hPa   cat  kts
2015-11-22 18   11.0   179.0W   1006                     
2015-11-23 06   12.0   180.0    1006                     
2015-11-23 18   14.0   179.0W   1007                     
2015-11-23 21   14.0   179.7W   1006                     
2015-11-24 06   14.2   179.1W   1010         15          
2015-11-24 12   13.1   177.9    1007         20          
2015-11-24 18   11.2   177.7    1007         20          
2015-11-25 00   10.3   177.9    1007         20          
2015-11-25 06    9.9   178.6    1007         20          
2015-11-25 12   10.3   178.9    1007         20          
2015-11-25 18   10.6   179.2    1007         20          
2015-11-26 00   10.0   177.9    1007         20          
2015-11-26 06   10.2   178.7    1007         20          
2015-11-26 12   10.2   179.4    1007         20          
2015-11-26 18   10.6   179.5    1001         30          
2015-11-27 00   11.3   178.3W                25          
2015-11-27 06   12.0   177.1W   1000         30          
2015-11-27 12   12.7   176.0W   1000         30          
2015-11-27 18   13.4   174.9W    996    1    35          
2015-11-28 00   13.7   174.4W    993    1    40          
2015-11-28 06   14.2   173.4W    993    1    40          
2015-11-28 12   14.5   173.6W    993    1    40          
2015-11-28 18   14.5   172.8W    993    1    40          
2015-11-29 00   15.7   171.9W    993    1    40          
2015-11-29 06   16.5   170.6W    993    1    40          
2015-11-29 12   17.9   169.1W    993    1    40          
2015-11-29 18   17.9   169.2W   1000         30          
2015-11-30 06   19.0   168.7W    998    1    40          
2015-11-30 12   20.2   167.5W   1000         25          
2015-11-30 18   21.2   166.5W   1002         25          
2015-12-01 00   19.3   166.6W    998                     
2015-12-01 06   19.9   165.9W    998                     
2015-12-01 12   20.4   164.8W    997                     
2015-12-01 18   20.9   164.0W    996                     
2015-12-02 00   21.1   162.5W    997                     
2015-12-02 06   22.0   161.6W    997                     
2015-12-02 12   22.5   159.9W    998                     
2015-12-02 18   23.1   158.4W    998                     
2015-12-03 00   22.9   157.3W    999                     
2015-12-03 06   22.4   157.1W   1001                     
2015-12-03 12   23.1   156.2W   1002                     
2015-12-03 18   24.0   154.8W   1004                     
2015-12-04 00   24.3   153.9W   1004                     
2015-12-04 06   25.1   153.8W   1005                     
2015-12-04 12   25.7   152.4W   1006                     
2015-12-04 18   26.9   152.3W   1007                     
2015-12-05 00   27.8   150.0W   1005                     
2015-12-05 06   29.2   148.4W   1004                     
2015-12-05 12   30.0   146.8W   1000                     
2015-12-05 18   31.6   144.5W    998                     
2015-12-06 00   32.6   142.3W    995                     
2015-12-06 06   33.5   140.4W    991                     
2015-12-06 12   34.8   139.5W    989                     
2015-12-06 18   35.5   138.3W    990                     
2015-12-07 00   36.2   137.3W    991                     
2015-12-07 06   37.3   136.9W    993                     
2015-12-07 12   37.7   135.5W    992                     
2015-12-07 18   38.4   134.8W    993                     
2015-12-08 00   39.7   133.9W    992                     
2015-12-08 06   41.1   132.6W    993                     
2015-12-08 12   42.8   132.4W    991                     
2015-12-08 18   44.8   132.2W    992                     
2015-12-09 00   45.2   132.0W                            
2015-12-09 06   46.6   132.2W                            
2015-12-09 12   48.3   132.3W                            
2015-12-09 18   50.1   132.4W                            
2015-12-10 00   51.2   133.1W                            
2015-12-10 06   52.9   134.6W                            
2015-12-10 12   55.1   136.6W                            
2015-12-10 18   57.2   141.0W                            
Winds are 10-min average.

Tropical cyclone tracks developed by Michael Bath using operational warnings and advisories and Google Maps.


[Australian Severe Weather index] [Copyright Notice] [Email Contacts] [Search This Site] [Privacy Policy]
Document: tropical_cyclone_tuni.htm Updated: 2 May 2017